Time;durP1;ratioP1;P1;durP2;ratioP2;P2;SDS_P1;SDS_P2;PMS_P1;PMS_P2;Temp;Humidity;BMP_temperature;BMP_pressure;BME280_temperature;BME280_humidity;BME280_pressure;Samples;Min_cycle;Max_cycle;Signal;HPM_P1;HPM_P2
2023/02/06 00:01:14;;;;;;;18.55;3.85;;;;;;;4.37;86.57;104642.31;6100938;19;20006;-76
2023/02/06 00:03:21;;;;;;;14.63;3.13;;;;;;;4.37;86.75;104652.75;6099861;19;20018;-75
2023/02/06 00:05:27;;;;;;;17.50;4.13;;;;;;;4.39;86.82;104648.47;6101998;19;20009;-77
2023/02/06 00:07:35;;;;;;;17.35;3.88;;;;;;;4.37;86.60;104647.53;6100700;19;20010;-75
2023/02/06 00:09:40;;;;;;;19.73;4.63;;;;;;;4.35;86.84;104630.94;6101336;19;20555;-75
2023/02/06 00:11:45;;;;;;;16.45;3.58;;;;;;;4.34;86.64;104634.34;6097921;19;20006;-75
2023/02/06 00:13:51;;;;;;;19.00;3.95;;;;;;;4.34;86.96;104636.94;6104112;19;20024;-78
2023/02/06 00:15:59;;;;;;;16.45;3.80;;;;;;;4.38;86.80;104636.28;6102882;19;20011;-79
2023/02/06 00:18:07;;;;;;;16.55;3.95;;;;;;;4.36;86.92;104629.22;6104565;19;20011;-79
2023/02/06 00:20:16;;;;;;;16.73;3.78;;;;;;;4.34;86.71;104626.53;6102966;19;20011;-79
2023/02/06 00:22:26;;;;;;;12.93;3.38;;;;;;;4.33;86.83;104632.56;6106028;19;20292;-79
2023/02/06 00:24:31;;;;;;;14.55;3.88;;;;;;;4.32;86.73;104622.97;6099360;19;20030;-79
2023/02/06 00:26:36;;;;;;;20.00;5.13;;;;;;;4.34;86.91;104629.13;6101728;19;20010;-76
2023/02/06 00:28:40;;;;;;;20.88;4.57;;;;;;;4.37;86.81;104639.72;6105701;19;20032;-76
2023/02/06 00:30:51;;;;;;;15.82;3.90;;;;;;;4.37;86.93;104637.13;6105882;19;20025;-77
2023/02/06 00:32:59;;;;;;;18.10;3.88;;;;;;;4.38;87.13;104631.06;6106333;19;20021;-78
2023/02/06 00:35:04;;;;;;;17.50;4.10;;;;;;;4.36;86.81;104634.41;6107127;19;20066;-79
2023/02/06 00:37:13;;;;;;;12.90;3.28;;;;;;;4.30;86.79;104631.53;6104839;19;20029;-79
2023/02/06 00:39:18;;;;;;;13.13;3.08;;;;;;;4.28;86.78;104626.25;6104462;19;20007;-79
2023/02/06 00:41:24;;;;;;;9.50;3.53;;;;;;;4.29;86.82;104625.44;6082757;19;20052;-78
2023/02/06 00:43:29;;;;;;;14.80;3.38;;;;;;;4.27;87.20;104619.28;6102806;19;20499;-76
2023/02/06 00:45:35;;;;;;;13.23;3.67;;;;;;;4.28;87.01;104628.84;6105105;19;20349;-78
2023/02/06 00:47:40;;;;;;;22.33;3.70;;;;;;;4.33;87.16;104626.47;6101343;19;20007;-78
2023/02/06 00:49:55;;;;;;;15.55;3.60;;;;;;;4.32;86.91;104628.19;6100231;19;20038;-78
2023/02/06 00:52:01;;;;;;;22.75;3.88;;;;;;;4.28;87.04;104623.66;6100479;19;20457;-78
2023/02/06 00:54:06;;;;;;;15.85;3.22;;;;;;;4.35;86.84;104624.84;6098887;19;20040;-78
2023/02/06 00:56:11;;;;;;;14.90;3.78;;;;;;;4.34;87.12;104615.22;6101173;19;20194;-79
2023/02/06 00:58:16;;;;;;;22.17;4.13;;;;;;;4.32;86.95;104615.16;6102655;19;20056;-78
2023/02/06 01:00:21;;;;;;;12.68;3.03;;;;;;;4.32;87.02;104622.09;6102278;19;20013;-79
2023/02/06 01:02:27;;;;;;;13.77;3.78;;;;;;;4.36;87.14;104622.28;6100996;19;20142;-78
2023/02/06 01:04:32;;;;;;;15.73;3.58;;;;;;;4.31;87.27;104626.38;6100148;19;20108;-79
2023/02/06 01:06:45;;;;;;;16.30;2.70;;;;;;;4.27;87.06;104623.59;6104310;19;20011;-79
2023/02/06 01:08:50;;;;;;;11.45;3.83;;;;;;;4.29;87.14;104625.44;6082393;19;20011;-79
2023/02/06 01:10:55;;;;;;;13.82;3.13;;;;;;;4.25;87.29;104615.69;6104410;19;20098;-79
2023/02/06 01:13:01;;;;;;;13.25;2.80;;;;;;;4.21;87.30;104618.09;6106040;19;20013;-78
2023/02/06 01:15:07;;;;;;;14.95;3.35;;;;;;;4.21;87.46;104621.56;6084116;19;20056;-79
2023/02/06 01:17:19;;;;;;;16.55;3.70;;;;;;;4.20;87.55;104619.81;6082558;19;20417;-79
2023/02/06 01:19:24;;;;;;;15.27;3.60;;;;;;;4.16;87.67;104629.19;6105596;19;20011;-79
2023/02/06 01:21:32;;;;;;;14.00;3.78;;;;;;;4.12;87.82;104615.94;6104908;19;20031;-79
2023/02/06 01:23:40;;;;;;;12.65;2.80;;;;;;;4.10;87.78;104620.19;6105205;19;20014;-79
2023/02/06 01:25:46;;;;;;;12.00;2.70;;;;;;;4.17;88.08;104627.47;6096765;19;20784;-76
2023/02/06 01:27:51;;;;;;;13.80;3.75;;;;;;;4.14;87.68;104629.94;6106940;19;20592;-76
2023/02/06 01:29:57;;;;;;;11.75;2.72;;;;;;;4.11;87.74;104635.00;6103592;19;20022;-76
2023/02/06 01:32:04;;;;;;;16.08;3.08;;;;;;;4.08;88.01;104635.75;6105690;19;20010;-76
2023/02/06 01:34:09;;;;;;;13.57;3.70;;;;;;;4.08;88.35;104638.34;6104921;19;20512;-76
2023/02/06 01:36:16;;;;;;;16.77;4.00;;;;;;;4.12;88.06;104631.56;6105576;19;20015;-76
2023/02/06 01:38:27;;;;;;;14.13;3.42;;;;;;;4.15;88.01;104626.50;6104167;19;20015;-76
2023/02/06 01:40:35;;;;;;;15.60;4.00;;;;;;;4.15;88.21;104619.56;6108283;19;20010;-79
2023/02/06 01:42:40;;;;;;;12.32;3.58;;;;;;;4.20;88.14;104616.31;6109111;19;20011;-79
2023/02/06 01:44:45;;;;;;;19.25;3.80;;;;;;;4.24;88.23;104621.75;6107661;19;20017;-79
2023/02/06 01:46:53;;;;;;;19.45;4.18;;;;;;;4.26;88.24;104620.06;6107433;19;20042;-79
2023/02/06 01:49:02;;;;;;;12.80;3.30;;;;;;;4.24;88.09;104624.34;6109572;19;20010;-80
2023/02/06 01:51:14;;;;;;;12.07;3.03;;;;;;;4.27;87.97;104624.47;6104725;19;20015;-79
2023/02/06 01:53:20;;;;;;;13.05;3.20;;;;;;;4.25;87.80;104623.50;6102027;19;21542;-79
2023/02/06 01:55:27;;;;;;;15.25;4.35;;;;;;;4.22;88.19;104615.56;6101412;19;20015;-79
2023/02/06 01:57:38;;;;;;;14.73;3.50;;;;;;;4.17;88.18;104615.34;6106178;19;20009;-79
2023/02/06 01:59:48;;;;;;;15.32;3.45;;;;;;;4.13;88.23;104609.91;6105696;19;20039;-77
2023/02/06 02:01:54;;;;;;;11.15;3.38;;;;;;;4.11;88.44;104616.78;6106476;19;20010;-76
2023/02/06 02:04:05;;;;;;;12.95;3.42;;;;;;;4.07;88.79;104620.94;6107721;19;20010;-79
2023/02/06 02:06:24;;;;;;;20.90;3.92;;;;;;;4.04;88.44;104615.59;6106637;19;20006;-79
2023/02/06 02:08:35;;;;;;;15.57;3.50;;;;;;;4.04;88.59;104615.59;6105615;19;20073;-77
2023/02/06 02:10:42;;;;;;;20.58;3.60;;;;;;;4.04;88.92;104614.69;6080848;19;20014;-77
2023/02/06 02:12:50;;;;;;;14.60;4.15;;;;;;;4.03;88.90;104618.09;6104864;19;20073;-80
2023/02/06 02:14:59;;;;;;;14.05;3.78;;;;;;;4.03;88.61;104611.22;6107078;19;20351;-78
2023/02/06 02:17:17;;;;;;;15.88;3.75;;;;;;;4.03;88.83;104603.41;6107280;19;20018;-80
2023/02/06 02:20:01;;;;;;;8.13;2.67;;;;;;;4.04;88.96;104606.88;6103139;19;20559;-79
2023/02/06 02:22:38;;;;;;;16.17;4.28;;;;;;;4.03;88.97;104597.28;6108967;19;20440;-78
2023/02/06 02:25:05;;;;;;;13.15;4.22;;;;;;;4.01;89.12;104593.75;6108097;19;20014;-79
2023/02/06 02:27:31;;;;;;;11.27;3.65;;;;;;;3.97;88.77;104593.56;6108346;19;20017;-79
2023/02/06 02:30:10;;;;;;;10.02;3.47;;;;;;;3.93;89.08;104589.06;6103110;19;20006;-78
2023/02/06 02:32:44;;;;;;;11.48;3.83;;;;;;;3.90;89.08;104583.72;6106822;19;20027;-75
2023/02/06 02:35:08;;;;;;;10.45;2.90;;;;;;;3.90;89.34;104581.09;6106764;19;20082;-75
2023/02/06 02:37:24;;;;;;;7.72;3.20;;;;;;;3.86;88.95;104586.97;6106198;19;20416;-75
2023/02/06 02:39:46;;;;;;;18.20;3.67;;;;;;;3.83;89.23;104579.03;6104289;19;19999;-75
2023/02/06 02:41:58;;;;;;;11.93;3.08;;;;;;;3.80;89.73;104580.59;6106855;19;20087;-78
2023/02/06 02:44:09;;;;;;;12.38;3.35;;;;;;;3.76;89.33;104570.84;6083469;19;20006;-78
2023/02/06 02:46:25;;;;;;;9.75;3.30;;;;;;;3.73;89.30;104571.59;6104417;19;20014;-80
2023/02/06 02:48:34;;;;;;;10.60;3.47;;;;;;;3.72;89.54;104575.03;6105805;19;20479;-78
2023/02/06 02:50:43;;;;;;;18.52;3.70;;;;;;;3.71;89.87;104579.34;6105252;19;20023;-78
2023/02/06 02:52:47;;;;;;;10.20;3.42;;;;;;;3.69;89.53;104577.50;6100103;19;20419;-78
2023/02/06 02:54:54;;;;;;;14.70;2.90;;;;;;;3.67;89.52;104586.91;6103363;19;20010;-79
2023/02/06 02:57:08;;;;;;;9.75;2.67;;;;;;;3.65;89.96;104579.03;6104545;19;20015;-79
2023/02/06 02:59:18;;;;;;;10.70;2.80;;;;;;;3.65;89.89;104576.44;6106565;19;20015;-79
2023/02/06 03:01:30;;;;;;;13.38;3.00;;;;;;;3.62;89.69;104570.19;6102700;19;20014;-79
2023/02/06 03:03:39;;;;;;;15.98;3.60;;;;;;;3.70;90.58;104574.94;6101941;19;20007;-79
2023/02/06 03:06:01;;;;;;;12.52;3.22;;;;;;;3.64;89.85;104574.66;6106144;19;20226;-79
2023/02/06 03:08:18;;;;;;;11.23;2.80;;;;;;;3.61;89.82;104576.22;6103014;19;20006;-80
2023/02/06 03:10:33;;;;;;;12.30;3.42;;;;;;;3.62;90.06;104567.59;6102502;19;20333;-75
2023/02/06 03:12:51;;;;;;;21.33;4.47;;;;;;;3.60;90.24;104566.63;6103918;19;20042;-77
2023/02/06 03:15:01;;;;;;;13.43;3.72;;;;;;;3.61;90.07;104576.22;6102023;19;20007;-75
2023/02/06 03:17:11;;;;;;;12.45;3.05;;;;;;;3.57;90.74;104585.56;6103960;19;20023;-79
2023/02/06 03:19:21;;;;;;;9.48;2.70;;;;;;;3.51;90.29;104575.75;6075110;19;20002;-78
2023/02/06 03:21:31;;;;;;;11.20;3.33;;;;;;;3.48;89.97;104573.03;6100888;19;20086;-79
2023/02/06 03:23:40;;;;;;;12.30;3.63;;;;;;;3.46;90.55;104578.97;6104861;19;20078;-78
2023/02/06 03:25:48;;;;;;;6.57;2.65;;;;;;;3.44;90.36;104576.28;6104756;19;20003;-76
2023/02/06 03:27:55;;;;;;;10.63;2.70;;;;;;;3.44;90.50;104575.38;6105335;19;20036;-76
2023/02/06 03:30:05;;;;;;;16.48;3.28;;;;;;;3.41;90.69;104589.13;6104715;19;20736;-75
2023/02/06 03:32:17;;;;;;;10.38;3.88;;;;;;;3.37;90.87;104587.22;6102515;19;20464;-77
2023/02/06 03:34:33;;;;;;;10.23;2.97;;;;;;;3.36;91.04;104584.53;6103578;19;20038;-76
2023/02/06 03:36:41;;;;;;;10.80;2.72;;;;;;;3.35;91.41;104588.84;6106790;19;20011;-77
2023/02/06 03:38:52;;;;;;;12.50;3.05;;;;;;;3.35;91.67;104593.16;6105415;19;20039;-76
2023/02/06 03:41:01;;;;;;;9.65;2.42;;;;;;;3.33;90.93;104585.25;6105748;19;20034;-77
2023/02/06 03:43:17;;;;;;;12.05;3.15;;;;;;;3.30;91.33;104583.41;6105026;19;20395;-79
2023/02/06 03:45:28;;;;;;;11.55;3.47;;;;;;;3.34;91.82;104591.34;6101738;19;20041;-79
2023/02/06 03:47:35;;;;;;;9.82;3.10;;;;;;;3.32;91.47;104593.88;6100354;19;20407;-78
2023/02/06 03:49:44;;;;;;;9.10;4.30;;;;;;;3.32;91.57;104586.09;6082781;19;20021;-79
2023/02/06 03:51:58;;;;;;;14.32;3.03;;;;;;;3.29;91.25;104594.63;6100800;19;20049;-79
2023/02/06 03:54:07;;;;;;;9.27;2.83;;;;;;;3.28;91.08;104599.72;6099900;19;20007;-79
2023/02/06 03:56:17;;;;;;;9.45;2.72;;;;;;;3.26;91.35;104599.63;6101794;19;20043;-78
2023/02/06 03:58:22;;;;;;;9.30;3.70;;;;;;;3.22;91.38;104587.31;6102031;19;20040;-80
2023/02/06 04:00:31;;;;;;;16.98;3.33;;;;;;;3.19;91.60;104584.56;6101019;19;20002;-78
2023/02/06 04:02:40;;;;;;;9.50;3.75;;;;;;;3.15;91.57;104582.63;6103505;19;20010;-78
2023/02/06 04:04:47;;;;;;;9.27;3.53;;;;;;;3.12;91.34;104585.06;6099852;19;20497;-77
2023/02/06 04:06:56;;;;;;;16.13;3.38;;;;;;;3.10;91.96;104583.22;6078214;19;20018;-78
2023/02/06 04:09:03;;;;;;;10.68;2.95;;;;;;;3.07;91.46;104583.94;6103039;19;20013;-77
2023/02/06 04:11:10;;;;;;;10.02;3.05;;;;;;;3.03;91.08;104580.31;6103112;19;20003;-80
2023/02/06 04:13:19;;;;;;;20.13;3.70;;;;;;;3.00;91.17;104581.84;6100268;19;20006;-75
2023/02/06 04:15:24;;;;;;;6.25;2.70;;;;;;;2.96;91.04;104582.50;6100812;19;20024;-75
2023/02/06 04:17:30;;;;;;;10.25;3.15;;;;;;;2.95;91.51;104580.69;6102166;19;20021;-75
2023/02/06 04:19:55;;;;;;;12.27;3.30;;;;;;;2.92;91.87;104588.34;6098475;19;20003;-77
2023/02/06 04:22:03;;;;;;;16.80;3.60;;;;;;;2.93;91.61;104579.75;6104029;19;20011;-75
2023/02/06 04:24:09;;;;;;;19.08;3.53;;;;;;;2.91;91.55;104571.00;6102247;19;20031;-75
2023/02/06 04:26:14;;;;;;;11.75;2.92;;;;;;;2.88;91.54;104576.03;6102671;19;20051;-76
2023/02/06 04:28:19;;;;;;;17.00;3.95;;;;;;;2.85;91.29;104582.84;6103622;19;20022;-75
2023/02/06 04:30:24;;;;;;;13.23;3.00;;;;;;;2.82;91.66;104587.00;6105333;19;20038;-75
2023/02/06 04:32:29;;;;;;;6.90;2.85;;;;;;;2.79;92.17;104586.81;6103175;19;20349;-75
2023/02/06 04:34:37;;;;;;;13.65;3.25;;;;;;;2.75;92.18;104590.97;6102559;19;20010;-76
2023/02/06 04:36:42;;;;;;;10.70;3.33;;;;;;;2.73;92.01;104596.91;6101037;19;20014;-76
2023/02/06 04:38:52;;;;;;;12.30;3.40;;;;;;;2.73;92.04;104592.59;6102426;19;20086;-75
2023/02/06 04:41:04;;;;;;;12.27;3.30;;;;;;;2.72;91.79;104588.22;6104616;19;20014;-74
2023/02/06 04:43:11;;;;;;;11.68;3.83;;;;;;;2.70;92.61;104604.53;6103888;19;21001;-77
2023/02/06 04:45:16;;;;;;;14.85;4.10;;;;;;;2.68;92.35;104609.63;6103179;19;20010;-77
2023/02/06 04:47:21;;;;;;;19.13;4.10;;;;;;;2.67;92.58;104614.75;6107211;19;20040;-76
2023/02/06 04:49:27;;;;;;;11.77;3.97;;;;;;;2.66;92.07;104616.47;6109341;19;20007;-78
2023/02/06 04:51:32;;;;;;;11.20;2.90;;;;;;;2.65;92.04;104606.88;6109964;19;20011;-79
2023/02/06 04:53:40;;;;;;;8.27;2.80;;;;;;;2.64;92.37;104599.91;6106220;19;20023;-78
2023/02/06 04:55:48;;;;;;;14.27;3.92;;;;;;;2.63;92.63;104591.22;6105164;19;20036;-79
2023/02/06 04:57:53;;;;;;;8.25;3.55;;;;;;;2.61;92.42;104591.97;6107186;19;20320;-79
2023/02/06 04:59:58;;;;;;;16.58;4.53;;;;;;;2.59;92.70;104597.06;6108196;19;20005;-79
2023/02/06 05:02:03;;;;;;;14.77;4.10;;;;;;;2.60;93.40;104604.03;6103413;19;20376;-75
2023/02/06 05:04:09;;;;;;;17.73;3.75;;;;;;;2.63;92.85;104606.81;6106216;19;20018;-76
2023/02/06 05:06:17;;;;;;;12.93;3.67;;;;;;;2.59;92.65;104596.19;6108179;19;20002;-76
2023/02/06 05:08:23;;;;;;;9.07;3.33;;;;;;;2.54;92.18;104595.03;6107156;19;20003;-75
2023/02/06 05:10:29;;;;;;;12.32;3.35;;;;;;;2.47;92.79;104596.41;6106676;19;20101;-76
2023/02/06 05:12:39;;;;;;;14.10;3.65;;;;;;;2.45;93.23;104590.25;6104814;19;20007;-77
2023/02/06 05:14:44;;;;;;;19.88;4.18;;;;;;;2.46;93.96;104585.94;6107918;19;20479;-77
2023/02/06 05:16:50;;;;;;;18.23;4.00;;;;;;;2.43;93.80;104581.47;6107863;19;20021;-77
2023/02/06 05:18:55;;;;;;;15.32;3.92;;;;;;;2.42;93.95;104577.09;6106719;19;20022;-75
2023/02/06 05:21:01;;;;;;;19.23;4.55;;;;;;;2.54;94.25;104589.84;6104421;19;20011;-75
2023/02/06 05:23:06;;;;;;;26.92;4.40;;;;;;;2.57;94.79;104588.28;6106234;19;20024;-75
2023/02/06 05:25:11;;;;;;;19.98;4.50;;;;;;;2.61;94.62;104579.88;6107151;19;20024;-78
2023/02/06 05:27:16;;;;;;;12.45;3.80;;;;;;;2.60;94.20;104572.88;6100559;19;20027;-76
2023/02/06 05:29:24;;;;;;;21.25;4.20;;;;;;;2.63;94.71;104578.25;6102995;19;20021;-79
2023/02/06 05:31:29;;;;;;;11.70;3.70;;;;;;;2.61;94.33;104579.88;6104811;19;20032;-78
2023/02/06 05:33:35;;;;;;;12.77;3.58;;;;;;;2.60;94.50;104571.97;6107154;19;21197;-78
2023/02/06 05:35:41;;;;;;;12.27;3.35;;;;;;;2.52;93.97;104571.56;6108099;19;20032;-78
2023/02/06 05:37:47;;;;;;;17.83;3.63;;;;;;;2.48;94.14;104574.84;6107468;19;20070;-78
2023/02/06 05:39:52;;;;;;;19.75;3.92;;;;;;;2.48;94.37;104579.16;6106078;19;20405;-78
2023/02/06 05:42:00;;;;;;;24.13;5.63;;;;;;;2.42;94.35;104580.59;6107291;19;20013;-77
2023/02/06 05:44:06;;;;;;;15.18;4.38;;;;;;;2.39;94.14;104582.13;6106510;19;20743;-78
2023/02/06 05:46:14;;;;;;;12.63;3.80;;;;;;;2.39;93.80;104589.91;6107038;19;20010;-77
2023/02/06 05:48:19;;;;;;;14.27;4.00;;;;;;;2.40;94.19;104587.41;6106106;19;20065;-79
2023/02/06 05:50:24;;;;;;;16.95;4.40;;;;;;;2.48;94.44;104585.22;6104393;19;20368;-77
2023/02/06 05:52:30;;;;;;;17.35;4.47;;;;;;;2.46;94.30;104579.03;6100612;19;20020;-76
2023/02/06 05:54:36;;;;;;;13.57;3.00;;;;;;;2.55;94.47;104582.13;6102901;19;20002;-78
2023/02/06 05:56:41;;;;;;;18.15;4.20;;;;;;;2.61;94.90;104585.06;6100891;19;20026;-76
2023/02/06 05:58:48;;;;;;;16.52;3.88;;;;;;;2.68;94.72;104586.25;6101924;19;20003;-76
2023/02/06 06:00:53;;;;;;;17.92;4.05;;;;;;;2.74;94.50;104580.50;6103730;19;20086;-76
2023/02/06 06:03:02;;;;;;;14.85;3.60;;;;;;;2.82;94.41;104584.41;6103701;19;20468;-81
2023/02/06 06:05:08;;;;;;;15.63;3.50;;;;;;;2.81;94.39;104587.78;6079291;19;20015;-81
2023/02/06 06:07:13;;;;;;;9.82;3.33;;;;;;;2.77;93.99;104591.06;6105788;19;20011;-79
2023/02/06 06:09:22;;;;;;;12.55;3.03;;;;;;;2.77;94.20;104596.25;6101223;19;20021;-81
2023/02/06 06:11:32;;;;;;;11.95;3.03;;;;;;;2.71;93.99;104582.94;6103294;19;20097;-80
2023/02/06 06:13:40;;;;;;;;;;;;;;;2.70;94.17;104591.53;6103618;19;20044;-78
2023/02/06 06:15:45;;;;;;;12.73;4.35;;;;;;;2.68;94.15;104582.78;6103270;19;19962;-78
2023/02/06 06:17:50;;;;;;;18.92;4.00;;;;;;;2.69;94.31;104582.88;6102919;19;20087;-79
2023/02/06 06:20:00;;;;;;;19.48;5.47;;;;;;;2.70;94.61;104578.56;6100582;19;20022;-79
2023/02/06 06:22:06;;;;;;;10.48;2.97;;;;;;;2.71;94.45;104577.72;6106486;19;20498;-78
2023/02/06 06:24:11;;;;;;;13.90;4.00;;;;;;;2.71;94.57;104590.72;6105392;19;20015;-78
2023/02/06 06:26:16;;;;;;;13.32;3.15;;;;;;;2.77;94.86;104580.69;6099762;19;20011;-79
2023/02/06 06:28:21;;;;;;;14.07;3.58;;;;;;;2.73;94.41;104584.78;6105370;19;20066;-76
2023/02/06 06:30:26;;;;;;;17.75;3.17;;;;;;;2.69;94.33;104576.78;6107977;19;20059;-75
2023/02/06 06:32:31;;;;;;;14.27;3.88;;;;;;;2.71;94.46;104576.03;6103445;19;20051;-76
2023/02/06 06:34:38;;;;;;;13.05;4.32;;;;;;;2.71;94.40;104576.03;6105557;19;20002;-76
2023/02/06 06:36:49;;;;;;;14.52;3.35;;;;;;;2.73;94.74;104576.13;6107737;19;20027;-76
2023/02/06 06:38:54;;;;;;;15.73;3.47;;;;;;;2.73;94.00;104586.50;6110721;19;20002;-76
2023/02/06 06:41:02;;;;;;;17.50;4.32;;;;;;;2.76;94.68;104584.94;6109313;19;20015;-79
2023/02/06 06:43:07;;;;;;;15.13;3.20;;;;;;;2.78;94.39;104587.63;6107140;19;20579;-80
2023/02/06 06:45:12;;;;;;;9.57;2.90;;;;;;;2.76;94.40;104594.44;6104105;19;20010;-75
2023/02/06 06:47:18;;;;;;;17.60;4.78;;;;;;;2.73;94.59;104590.00;6072263;19;20521;-77
2023/02/06 06:49:23;;;;;;;18.90;4.53;;;;;;;2.70;94.37;104591.53;6098885;19;20018;-76
2023/02/06 06:51:39;;;;;;;9.90;2.97;;;;;;;2.72;95.03;104588.22;6103298;19;20013;-76
2023/02/06 06:53:47;;;;;;;7.68;3.03;;;;;;;2.67;94.30;104589.69;6098882;19;20580;-76
2023/02/06 06:55:54;;;;;;;9.02;2.72;;;;;;;2.62;94.19;104591.13;6101123;19;20254;-76
2023/02/06 06:57:59;;;;;;;14.75;3.70;;;;;;;2.60;94.21;104588.44;6100667;19;20040;-76
2023/02/06 07:00:06;;;;;;;6.75;2.97;;;;;;;2.59;94.05;104584.06;6104700;19;20140;-76
2023/02/06 07:02:12;;;;;;;10.80;3.83;;;;;;;2.59;94.25;104588.38;6095009;19;20534;-76
2023/02/06 07:04:17;;;;;;;9.45;3.63;;;;;;;2.60;94.57;104582.38;6103219;19;20235;-80
2023/02/06 07:06:22;;;;;;;15.00;3.67;;;;;;;2.56;94.67;104596.91;6104033;19;20017;-80
2023/02/06 07:08:29;;;;;;;10.55;3.10;;;;;;;2.56;94.24;104598.63;6102367;19;20523;-80
2023/02/06 07:10:39;;;;;;;9.88;3.50;;;;;;;2.57;94.40;104595.19;6100357;19;20010;-79
2023/02/06 07:12:52;;;;;;;19.25;3.50;;;;;;;2.56;94.58;104581.31;6102092;19;20011;-80
2023/02/06 07:15:06;;;;;;;6.72;2.75;;;;;;;2.51;94.33;104577.59;6096131;19;20436;-79
2023/02/06 07:17:12;;;;;;;10.82;3.72;;;;;;;2.48;94.05;104573.94;6101659;19;20024;-76
2023/02/06 07:19:17;;;;;;;10.68;3.20;;;;;;;2.45;94.16;104569.50;6093005;19;20463;-77
2023/02/06 07:21:22;;;;;;;10.95;3.22;;;;;;;2.42;94.14;104569.28;6100483;19;20029;-76
2023/02/06 07:23:28;;;;;;;10.23;3.38;;;;;;;2.48;95.03;104569.66;6103178;19;20056;-77
2023/02/06 07:25:34;;;;;;;12.05;3.88;;;;;;;2.45;94.70;104565.97;6103437;19;20014;-76
2023/02/06 07:27:45;;;;;;;6.82;2.95;;;;;;;2.46;94.49;104566.06;6100277;19;20520;-77
2023/02/06 07:29:50;;;;;;;10.05;3.78;;;;;;;2.47;94.53;104564.34;6099066;19;20382;-78
2023/02/06 07:31:57;;;;;;;14.65;4.90;;;;;;;2.48;94.70;104566.16;6098810;19;20476;-80
2023/02/06 07:34:03;;;;;;;12.82;4.10;;;;;;;2.47;94.92;104567.84;6099956;19;20094;-80
2023/02/06 07:36:12;;;;;;;13.55;3.55;;;;;;;2.48;94.55;104571.34;6098981;19;20035;-79
2023/02/06 07:38:18;;;;;;;9.68;3.60;;;;;;;2.50;94.96;104572.31;6099941;19;20106;-80
2023/02/06 07:40:24;;;;;;;14.32;4.80;;;;;;;2.51;94.57;104567.22;6094458;19;20024;-80
2023/02/06 07:42:35;;;;;;;7.63;3.63;;;;;;;2.54;94.81;104569.97;6099772;19;20011;-79
2023/02/06 07:44:42;;;;;;;20.70;4.82;;;;;;;2.60;94.99;104577.19;6102867;19;20415;-80
2023/02/06 07:46:48;;;;;;;16.88;4.22;;;;;;;2.61;95.16;104568.59;6082702;19;20027;-78
2023/02/06 07:48:53;;;;;;;10.60;3.65;;;;;;;2.62;94.66;104567.75;6080987;19;20422;-75
2023/02/06 07:50:59;;;;;;;16.85;4.85;;;;;;;2.64;95.17;104574.81;6079632;19;20010;-78
2023/02/06 07:53:04;;;;;;;10.20;4.40;;;;;;;2.64;94.63;104569.63;6098324;19;20526;-76
2023/02/06 07:55:13;;;;;;;13.45;3.90;;;;;;;2.67;94.87;104568.00;6102464;19;20474;-76
2023/02/06 07:57:18;;;;;;;15.27;5.28;;;;;;;2.69;94.75;104569.00;6088586;19;20405;-77
2023/02/06 07:59:24;;;;;;;12.30;4.22;;;;;;;2.72;94.60;104569.16;6080639;19;20040;-76
2023/02/06 08:01:32;;;;;;;9.35;4.00;;;;;;;2.72;94.44;104567.44;6093834;19;20367;-77
2023/02/06 08:03:38;;;;;;;10.75;4.22;;;;;;;2.76;94.36;104553.78;6077020;19;20098;-76
2023/02/06 08:05:45;;;;;;;19.55;5.88;;;;;;;2.81;94.38;104547.13;6100426;19;20011;-76
2023/02/06 08:07:51;;;;;;;12.90;4.50;;;;;;;2.84;94.57;104541.19;6101731;19;20010;-76
2023/02/06 08:09:57;;;;;;;11.45;4.57;;;;;;;2.89;94.74;104533.63;6099868;19;21464;-76
2023/02/06 08:12:03;;;;;;;19.05;4.00;;;;;;;2.92;94.91;104534.69;6097892;19;20074;-78
2023/02/06 08:14:12;;;;;;;8.50;3.95;;;;;;;2.96;94.14;104527.94;6098991;19;20015;-78
2023/02/06 08:16:19;;;;;;;8.93;4.07;;;;;;;2.98;94.26;104539.31;6098986;19;20257;-78
2023/02/06 08:18:27;;;;;;;16.70;6.18;;;;;;;3.02;94.22;104530.84;6094591;19;20010;-77
2023/02/06 08:20:33;;;;;;;15.07;5.53;;;;;;;3.04;94.34;104526.63;6075534;19;20007;-77
2023/02/06 08:22:40;;;;;;;17.23;6.13;;;;;;;3.07;94.40;104527.66;6097262;19;20006;-77
2023/02/06 08:24:45;;;;;;;13.25;4.20;;;;;;;3.09;94.54;104514.75;6097518;19;20014;-76
2023/02/06 08:26:50;;;;;;;17.50;4.68;;;;;;;3.12;94.27;104511.41;6096840;19;20021;-77
2023/02/06 08:29:00;;;;;;;19.92;5.75;;;;;;;3.12;94.66;104508.81;6085293;19;20032;-76
2023/02/06 08:31:11;;;;;;;11.68;4.45;;;;;;;3.16;94.37;104498.66;6066965;19;20040;-78
2023/02/06 08:33:17;;;;;;;14.65;5.15;;;;;;;3.19;94.59;104503.13;6092618;19;20463;-76
2023/02/06 08:35:24;;;;;;;18.45;5.18;;;;;;;3.20;94.24;104503.16;6086136;19;20002;-77
2023/02/06 08:37:29;;;;;;;14.77;6.00;;;;;;;3.24;94.66;104502.53;6093225;19;20052;-76
2023/02/06 08:39:37;;;;;;;14.77;5.63;;;;;;;3.25;94.52;104493.00;6095740;19;20010;-77
2023/02/06 08:41:43;;;;;;;11.93;4.30;;;;;;;3.26;94.57;104479.19;6095342;19;20007;-76
2023/02/06 08:43:50;;;;;;;24.45;6.47;;;;;;;3.30;94.63;104476.81;6097268;19;20011;-76
2023/02/06 08:45:59;;;;;;;23.55;7.43;;;;;;;3.32;94.38;104479.50;6093760;19;20061;-76
2023/02/06 08:48:05;;;;;;;17.50;5.28;;;;;;;3.40;94.72;104482.47;6097386;19;20011;-75
2023/02/06 08:50:10;;;;;;;12.80;4.47;;;;;;;3.44;94.17;104480.06;6094005;19;20028;-77
2023/02/06 08:52:18;;;;;;;15.95;6.45;;;;;;;3.48;94.21;104466.41;6092714;19;20306;-75
2023/02/06 08:54:25;;;;;;;16.10;4.80;;;;;;;3.51;94.23;104458.75;6093900;19;20055;-75
2023/02/06 08:56:32;;;;;;;15.40;4.40;;;;;;;3.60;94.01;104466.06;6090525;19;20028;-76
2023/02/06 08:58:38;;;;;;;17.23;5.10;;;;;;;3.67;94.10;104469.88;6091735;19;20020;-79
2023/02/06 09:00:44;;;;;;;11.60;4.20;;;;;;;3.68;93.79;104469.94;6077678;19;20050;-79
2023/02/06 09:02:49;;;;;;;20.13;5.28;;;;;;;3.70;93.87;104467.41;6100067;19;20015;-79
2023/02/06 09:04:56;;;;;;;12.35;4.13;;;;;;;3.71;94.17;104464.88;6103386;19;20482;-80
2023/02/06 09:07:03;;;;;;;19.45;5.57;;;;;;;3.68;93.71;104472.53;6093762;19;20011;-80
2023/02/06 09:09:13;;;;;;;20.75;4.80;;;;;;;3.66;94.06;104460.25;6100075;19;20025;-78
2023/02/06 09:11:25;;;;;;;20.00;6.15;;;;;;;3.70;94.39;104457.88;6078343;19;20382;-79
2023/02/06 09:13:31;;;;;;;18.70;6.28;;;;;;;3.78;94.63;104454.75;6099521;19;20006;-81
2023/02/06 09:15:36;;;;;;;20.25;5.28;;;;;;;3.81;94.52;104453.19;6081600;19;20023;-80
2023/02/06 09:17:45;;;;;;;19.60;4.78;;;;;;;3.86;94.48;104449.06;6098401;19;20519;-81
2023/02/06 09:19:50;;;;;;;15.45;5.47;;;;;;;3.88;94.57;104457.84;6099948;19;20066;-80
2023/02/06 09:21:57;;;;;;;19.20;4.80;;;;;;;3.92;94.49;104461.47;6104081;19;20487;-80
2023/02/06 09:24:05;;;;;;;17.98;4.97;;;;;;;3.95;94.52;104462.50;6103785;19;20014;-81
2023/02/06 09:26:14;;;;;;;18.23;5.72;;;;;;;3.96;94.09;104466.00;6095224;19;20018;-76
2023/02/06 09:28:19;;;;;;;16.73;5.82;;;;;;;4.09;94.61;104467.44;6105921;19;20029;-76
2023/02/06 09:30:25;;;;;;;19.92;5.65;;;;;;;4.15;94.57;104463.38;6105232;19;20105;-76
2023/02/06 09:32:29;;;;;;;14.48;5.18;;;;;;;4.18;94.21;104458.31;6112002;19;20031;-79
2023/02/06 09:34:36;;;;;;;24.60;7.97;;;;;;;4.26;94.33;104450.84;6112713;19;20003;-79
2023/02/06 09:36:42;;;;;;;20.33;6.95;;;;;;;4.36;94.02;104447.81;6114412;19;20003;-80
2023/02/06 09:38:52;;;;;;;21.98;5.75;;;;;;;4.42;94.09;104449.78;6107221;19;20034;-81
2023/02/06 09:40:58;;;;;;;24.80;7.55;;;;;;;4.53;93.72;104463.28;6107290;19;20014;-80
2023/02/06 09:43:08;;;;;;;24.50;6.57;;;;;;;4.57;93.64;104450.47;6087867;19;20040;-80
2023/02/06 09:45:16;;;;;;;23.55;6.80;;;;;;;4.69;93.47;104447.50;6108840;19;20047;-80
2023/02/06 09:47:27;;;;;;;17.30;5.65;;;;;;;4.89;93.29;104444.81;6113362;19;20014;-80
2023/02/06 09:49:44;;;;;;;25.20;8.07;;;;;;;5.12;92.78;104441.44;6098350;19;20015;-81
2023/02/06 09:52:20;;;;;;;22.85;6.07;;;;;;;5.21;92.20;104436.59;6104134;19;20010;-80
2023/02/06 09:54:33;;;;;;;22.77;7.05;;;;;;;5.45;92.02;104451.41;6105821;19;20512;-79
2023/02/06 09:56:50;;;;;;;26.48;6.63;;;;;;;5.58;91.71;104450.16;6111981;19;20014;-80
2023/02/06 09:59:04;;;;;;;22.02;6.55;;;;;;;5.68;90.14;104455.78;6106610;19;20072;-80